sensor_id;sensor_type;location;lat;lon;timestamp;pressure;altitude;pressure_sealevel;temperature;humidity
18137;BME280;9194;42.632;23.298;2022-10-04T00:02:45;92777.25;;;11.20;80.42
18137;BME280;9194;42.632;23.298;2022-10-04T00:07:51;92777.69;;;11.17;79.51
18137;BME280;9194;42.632;23.298;2022-10-04T00:12:59;92782.28;;;11.03;79.20
18137;BME280;9194;42.632;23.298;2022-10-04T00:23:25;92782.78;;;11.12;79.96
18137;BME280;9194;42.632;23.298;2022-10-04T00:33:37;92775.91;;;10.99;79.22
18137;BME280;9194;42.632;23.298;2022-10-04T00:38:38;92774.19;;;10.93;79.90
18137;BME280;9194;42.632;23.298;2022-10-04T00:43:42;92771.66;;;10.87;77.42
18137;BME280;9194;42.632;23.298;2022-10-04T00:48:59;92755.69;;;10.83;78.48
18137;BME280;9194;42.632;23.298;2022-10-04T01:04:36;92736.09;;;10.62;76.67
18137;BME280;9194;42.632;23.298;2022-10-04T01:09:46;92726.41;;;10.51;79.15
18137;BME280;9194;42.632;23.298;2022-10-04T01:19:53;92736.97;;;10.56;78.04
18137;BME280;9194;42.632;23.298;2022-10-04T01:25:02;92735.69;;;10.65;79.72
18137;BME280;9194;42.632;23.298;2022-10-04T01:30:15;92733.44;;;10.69;78.16
18137;BME280;9194;42.632;23.298;2022-10-04T01:35:17;92734.44;;;10.50;76.64
18137;BME280;9194;42.632;23.298;2022-10-04T01:40:19;92739.63;;;10.32;79.43
18137;BME280;9194;42.632;23.298;2022-10-04T01:45:47;92732.34;;;10.40;76.69
18137;BME280;9194;42.632;23.298;2022-10-04T01:51:04;92731.75;;;10.38;77.40
18137;BME280;9194;42.632;23.298;2022-10-04T01:56:14;92745.28;;;10.28;81.58
18137;BME280;9194;42.632;23.298;2022-10-04T02:01:39;92739.50;;;10.26;76.12
18137;BME280;9194;42.632;23.298;2022-10-04T02:06:45;92742.91;;;10.27;80.54
18137;BME280;9194;42.632;23.298;2022-10-04T02:11:51;92755.75;;;10.22;78.00
18137;BME280;9194;42.632;23.298;2022-10-04T02:16:54;92759.59;;;10.38;79.98
18137;BME280;9194;42.632;23.298;2022-10-04T02:21:55;92748.19;;;10.57;80.78
18137;BME280;9194;42.632;23.298;2022-10-04T02:26:57;92756.50;;;10.65;80.27
18137;BME280;9194;42.632;23.298;2022-10-04T02:31:59;92749.03;;;10.51;81.76
18137;BME280;9194;42.632;23.298;2022-10-04T02:37:22;92758.16;;;10.42;82.61
18137;BME280;9194;42.632;23.298;2022-10-04T02:42:43;92755.25;;;10.32;87.04
18137;BME280;9194;42.632;23.298;2022-10-04T02:47:53;92768.00;;;10.40;84.60
18137;BME280;9194;42.632;23.298;2022-10-04T02:53:32;92771.75;;;10.44;84.61
18137;BME280;9194;42.632;23.298;2022-10-04T02:58:38;92781.59;;;10.42;82.14
18137;BME280;9194;42.632;23.298;2022-10-04T03:03:44;92784.91;;;10.49;82.29
18137;BME280;9194;42.632;23.298;2022-10-04T03:08:50;92792.28;;;10.52;83.09
18137;BME280;9194;42.632;23.298;2022-10-04T03:13:56;92777.25;;;10.36;86.18
18137;BME280;9194;42.632;23.298;2022-10-04T03:18:59;92785.19;;;10.16;85.95
18137;BME280;9194;42.632;23.298;2022-10-04T03:24:02;92781.28;;;10.07;88.72
18137;BME280;9194;42.632;23.298;2022-10-04T03:29:10;92782.09;;;10.07;89.66
18137;BME280;9194;42.632;23.298;2022-10-04T03:34:23;92797.91;;;10.06;85.01
18137;BME280;9194;42.632;23.298;2022-10-04T03:39:33;92785.38;;;10.21;83.65
18137;BME280;9194;42.632;23.298;2022-10-04T03:44:35;92797.47;;;10.09;86.65
18137;BME280;9194;42.632;23.298;2022-10-04T03:49:38;92782.66;;;10.09;84.32
18137;BME280;9194;42.632;23.298;2022-10-04T03:54:41;92793.66;;;10.11;85.80
18137;BME280;9194;42.632;23.298;2022-10-04T03:59:43;92792.69;;;10.06;86.71
18137;BME280;9194;42.632;23.298;2022-10-04T04:04:52;92795.75;;;9.96;86.17
18137;BME280;9194;42.632;23.298;2022-10-04T04:10:02;92800.75;;;9.98;86.23
18137;BME280;9194;42.632;23.298;2022-10-04T04:15:09;92808.34;;;9.99;83.40
18137;BME280;9194;42.632;23.298;2022-10-04T04:20:27;92817.38;;;9.97;82.90
18137;BME280;9194;42.632;23.298;2022-10-04T04:25:31;92818.50;;;10.07;81.74
18137;BME280;9194;42.632;23.298;2022-10-04T04:30:35;92834.09;;;10.07;83.45
18137;BME280;9194;42.632;23.298;2022-10-04T04:35:38;92839.06;;;10.09;81.47
18137;BME280;9194;42.632;23.298;2022-10-04T04:40:39;92829.06;;;10.12;83.50
18137;BME280;9194;42.632;23.298;2022-10-04T04:45:41;92825.31;;;10.02;82.92
18137;BME280;9194;42.632;23.298;2022-10-04T04:50:48;92830.72;;;10.07;82.11
18137;BME280;9194;42.632;23.298;2022-10-04T04:56:02;92843.72;;;10.07;82.28
18137;BME280;9194;42.632;23.298;2022-10-04T05:06:27;92844.84;;;10.17;84.20
18137;BME280;9194;42.632;23.298;2022-10-04T05:11:32;92840.03;;;10.14;85.64
18137;BME280;9194;42.632;23.298;2022-10-04T05:21:43;92847.16;;;10.25;86.15
18137;BME280;9194;42.632;23.298;2022-10-04T05:26:56;92857.25;;;10.40;82.78
18137;BME280;9194;42.632;23.298;2022-10-04T05:38:06;92858.09;;;10.34;81.40
18137;BME280;9194;42.632;23.298;2022-10-04T05:42:59;92859.47;;;10.12;83.40
18137;BME280;9194;42.632;23.298;2022-10-04T05:48:05;92873.03;;;10.14;82.84
18137;BME280;9194;42.632;23.298;2022-10-04T05:53:31;92881.06;;;10.12;83.38
18137;BME280;9194;42.632;23.298;2022-10-04T05:59:01;92877.81;;;10.23;82.35
18137;BME280;9194;42.632;23.298;2022-10-04T06:15:15;92906.50;;;10.42;81.30
18137;BME280;9194;42.632;23.298;2022-10-04T06:20:48;92920.72;;;10.64;81.01
18137;BME280;9194;42.632;23.298;2022-10-04T06:26:05;92918.69;;;10.66;78.56
18137;BME280;9194;42.632;23.298;2022-10-04T06:46:51;92933.66;;;11.32;74.72
18137;BME280;9194;42.632;23.298;2022-10-04T07:07:41;92942.13;;;12.76;66.28
18137;BME280;9194;42.632;23.298;2022-10-04T07:18:07;92945.28;;;12.55;68.89
18137;BME280;9194;42.632;23.298;2022-10-04T07:23:24;92954.38;;;12.88;68.05
18137;BME280;9194;42.632;23.298;2022-10-04T07:28:38;92948.72;;;12.67;68.87
18137;BME280;9194;42.632;23.298;2022-10-04T07:34:08;92944.59;;;13.53;66.79
18137;BME280;9194;42.632;23.298;2022-10-04T07:39:15;92959.78;;;13.39;63.80
18137;BME280;9194;42.632;23.298;2022-10-04T07:44:35;92968.38;;;12.93;64.30
18137;BME280;9194;42.632;23.298;2022-10-04T07:49:40;92979.41;;;13.07;63.07
18137;BME280;9194;42.632;23.298;2022-10-04T07:54:54;92962.41;;;13.28;65.22
18137;BME280;9194;42.632;23.298;2022-10-04T08:00:17;92973.88;;;13.27;64.23
18137;BME280;9194;42.632;23.298;2022-10-04T08:11:14;92981.06;;;12.66;64.14
18137;BME280;9194;42.632;23.298;2022-10-04T08:15:51;92978.38;;;12.85;64.12
18137;BME280;9194;42.632;23.298;2022-10-04T08:21:04;92988.63;;;13.09;65.09
18137;BME280;9194;42.632;23.298;2022-10-04T08:37:09;92967.56;;;14.03;60.77
18137;BME280;9194;42.632;23.298;2022-10-04T09:25:51;92957.38;;;13.89;62.60
18137;BME280;9194;42.632;23.298;2022-10-04T09:31:22;92967.78;;;13.73;64.25
18137;BME280;9194;42.632;23.298;2022-10-04T10:14:35;92989.03;;;13.76;61.33
18137;BME280;9194;42.632;23.298;2022-10-04T10:25:02;92995.00;;;14.57;61.19
18137;BME280;9194;42.632;23.298;2022-10-04T10:30:40;92980.03;;;15.52;57.98
18137;BME280;9194;42.632;23.298;2022-10-04T11:08:00;93000.09;;;15.64;56.41
18137;BME280;9194;42.632;23.298;2022-10-04T11:40:41;93006.09;;;14.19;62.10
18137;BME280;9194;42.632;23.298;2022-10-04T11:56:34;93005.28;;;14.75;60.59
18137;BME280;9194;42.632;23.298;2022-10-04T12:23:07;93002.44;;;14.93;59.30
18137;BME280;9194;42.632;23.298;2022-10-04T12:28:33;93013.22;;;14.80;61.11
18137;BME280;9194;42.632;23.298;2022-10-04T12:49:47;93008.72;;;15.59;59.04
18137;BME280;9194;42.632;23.298;2022-10-04T13:00:40;93016.66;;;14.80;60.08
18137;BME280;9194;42.632;23.298;2022-10-04T13:27:15;93004.81;;;14.21;62.97
18137;BME280;9194;42.632;23.298;2022-10-04T13:32:39;93008.53;;;14.09;63.67
18137;BME280;9194;42.632;23.298;2022-10-04T13:39:01;93011.16;;;14.09;63.80
18137;BME280;9194;42.632;23.298;2022-10-04T13:43:32;93005.00;;;14.43;61.20
18137;BME280;9194;42.632;23.298;2022-10-04T13:49:05;93014.41;;;14.56;59.99
18137;BME280;9194;42.632;23.298;2022-10-04T13:59:44;93022.50;;;14.14;63.78
18137;BME280;9194;42.632;23.298;2022-10-04T14:10:34;93034.53;;;13.64;63.84
18137;BME280;9194;42.632;23.298;2022-10-04T14:37:41;93054.34;;;13.60;63.27
18137;BME280;9194;42.632;23.298;2022-10-04T14:53:51;93083.25;;;13.00;67.03
18137;BME280;9194;42.632;23.298;2022-10-04T15:04:28;93090.13;;;12.83;67.88
18137;BME280;9194;42.632;23.298;2022-10-04T15:09:51;93100.69;;;12.88;72.99
18137;BME280;9194;42.632;23.298;2022-10-04T15:31:03;93130.28;;;12.40;80.60
18137;BME280;9194;42.632;23.298;2022-10-04T16:03:03;93152.47;;;11.45;85.99
18137;BME280;9194;42.632;23.298;2022-10-04T16:19:29;93185.66;;;11.00;92.21
18137;BME280;9194;42.632;23.298;2022-10-04T16:24:51;93185.66;;;11.00;88.45
18137;BME280;9194;42.632;23.298;2022-10-04T16:35:37;93192.25;;;11.02;89.16
18137;BME280;9194;42.632;23.298;2022-10-04T16:51:17;93211.72;;;11.31;85.11
18137;BME280;9194;42.632;23.298;2022-10-04T16:56:24;93218.69;;;11.37;83.73
18137;BME280;9194;42.632;23.298;2022-10-04T17:17:21;93247.44;;;11.56;84.45
18137;BME280;9194;42.632;23.298;2022-10-04T17:28:27;93242.53;;;11.66;86.79
18137;BME280;9194;42.632;23.298;2022-10-04T17:50:10;93273.75;;;11.16;90.85
18137;BME280;9194;42.632;23.298;2022-10-04T17:55:51;93273.03;;;10.96;92.04
18137;BME280;9194;42.632;23.298;2022-10-04T18:01:02;93290.06;;;10.98;91.05
18137;BME280;9194;42.632;23.298;2022-10-04T18:11:40;93294.44;;;11.04;93.05
18137;BME280;9194;42.632;23.298;2022-10-04T18:16:56;93308.59;;;11.22;92.12
18137;BME280;9194;42.632;23.298;2022-10-04T18:22:13;93315.34;;;11.36;93.21
18137;BME280;9194;42.632;23.298;2022-10-04T18:27:16;93311.69;;;11.43;92.04
18137;BME280;9194;42.632;23.298;2022-10-04T18:37:33;93322.44;;;11.53;89.40
18137;BME280;9194;42.632;23.298;2022-10-04T18:42:35;93321.31;;;11.43;91.05
18137;BME280;9194;42.632;23.298;2022-10-04T18:47:41;93322.59;;;11.27;90.43
18137;BME280;9194;42.632;23.298;2022-10-04T19:04:02;93318.03;;;10.65;95.46
18137;BME280;9194;42.632;23.298;2022-10-04T19:09:27;93326.81;;;10.70;93.89
18137;BME280;9194;42.632;23.298;2022-10-04T19:19:57;93336.84;;;10.60;91.91
18137;BME280;9194;42.632;23.298;2022-10-04T19:52:24;93360.09;;;10.09;99.57
18137;BME280;9194;42.632;23.298;2022-10-04T19:57:36;93350.91;;;10.07;100.00
18137;BME280;9194;42.632;23.298;2022-10-04T20:02:40;93345.28;;;10.43;96.78
18137;BME280;9194;42.632;23.298;2022-10-04T20:07:55;93344.88;;;10.46;95.90
18137;BME280;9194;42.632;23.298;2022-10-04T20:28:39;93381.09;;;10.14;100.00
18137;BME280;9194;42.632;23.298;2022-10-04T20:38:56;93386.69;;;9.98;100.00
18137;BME280;9194;42.632;23.298;2022-10-04T20:44:00;93381.91;;;9.95;100.00
18137;BME280;9194;42.632;23.298;2022-10-04T20:49:03;93385.88;;;9.91;100.00
18137;BME280;9194;42.632;23.298;2022-10-04T20:54:17;93385.06;;;9.97;100.00
18137;BME280;9194;42.632;23.298;2022-10-04T20:59:20;93383.69;;;9.95;100.00
18137;BME280;9194;42.632;23.298;2022-10-04T21:04:26;93386.88;;;10.03;100.00
18137;BME280;9194;42.632;23.298;2022-10-04T21:09:36;93395.09;;;10.13;100.00
18137;BME280;9194;42.632;23.298;2022-10-04T21:14:37;93403.38;;;10.30;100.00
18137;BME280;9194;42.632;23.298;2022-10-04T21:19:42;93402.56;;;10.29;99.72
18137;BME280;9194;42.632;23.298;2022-10-04T21:29:48;93403.38;;;10.30;98.61
18137;BME280;9194;42.632;23.298;2022-10-04T21:34:54;93410.38;;;10.29;99.58
18137;BME280;9194;42.632;23.298;2022-10-04T21:39:56;93408.56;;;10.37;99.67
18137;BME280;9194;42.632;23.298;2022-10-04T21:44:57;93393.16;;;10.35;98.98
18137;BME280;9194;42.632;23.298;2022-10-04T21:49:58;93397.94;;;10.45;96.12
18137;BME280;9194;42.632;23.298;2022-10-04T21:55:00;93395.13;;;10.33;100.00
18137;BME280;9194;42.632;23.298;2022-10-04T22:00:01;93394.31;;;10.19;100.00
18137;BME280;9194;42.632;23.298;2022-10-04T22:05:02;93400.56;;;10.18;100.00
18137;BME280;9194;42.632;23.298;2022-10-04T22:10:04;93402.13;;;10.19;100.00
18137;BME280;9194;42.632;23.298;2022-10-04T22:15:06;93403.38;;;10.37;99.94
18137;BME280;9194;42.632;23.298;2022-10-04T22:20:07;93406.16;;;10.22;100.00
18137;BME280;9194;42.632;23.298;2022-10-04T22:25:17;93411.97;;;10.24;100.00
18137;BME280;9194;42.632;23.298;2022-10-04T22:30:26;93421.34;;;10.32;100.00
18137;BME280;9194;42.632;23.298;2022-10-04T22:35:29;93418.97;;;10.23;100.00
18137;BME280;9194;42.632;23.298;2022-10-04T22:40:31;93416.16;;;10.25;100.00
18137;BME280;9194;42.632;23.298;2022-10-04T22:45:33;93410.53;;;10.21;100.00
18137;BME280;9194;42.632;23.298;2022-10-04T22:50:35;93417.97;;;10.24;100.00
18137;BME280;9194;42.632;23.298;2022-10-04T22:55:39;93425.19;;;10.29;99.66
18137;BME280;9194;42.632;23.298;2022-10-04T23:00:42;93419.97;;;10.36;100.00
18137;BME280;9194;42.632;23.298;2022-10-04T23:05:43;93423.38;;;10.23;100.00
18137;BME280;9194;42.632;23.298;2022-10-04T23:10:45;93416.94;;;10.25;100.00
18137;BME280;9194;42.632;23.298;2022-10-04T23:15:46;93410.16;;;10.24;98.76
18137;BME280;9194;42.632;23.298;2022-10-04T23:20:52;93411.56;;;10.40;96.05
18137;BME280;9194;42.632;23.298;2022-10-04T23:25:55;93422.38;;;10.44;96.19
18137;BME280;9194;42.632;23.298;2022-10-04T23:31:18;93426.56;;;10.38;97.93
18137;BME280;9194;42.632;23.298;2022-10-04T23:36:21;93423.19;;;10.24;100.00
18137;BME280;9194;42.632;23.298;2022-10-04T23:41:24;93429.19;;;10.18;100.00
18137;BME280;9194;42.632;23.298;2022-10-04T23:46:25;93431.31;;;10.08;99.17
18137;BME280;9194;42.632;23.298;2022-10-04T23:51:30;93437.09;;;10.04;100.00
18137;BME280;9194;42.632;23.298;2022-10-04T23:56:31;93444.78;;;10.18;98.79
